To NAV CANADA Home Page Login to a new session Search on AWWS site Feedback and Comments Disclaimer Vers la page française équivalente Tips FAQ What's new on the site To the Forecasts and Observations / NOTAM section To "File a Flight Plan" website Publications and other links Update of the User's profile FIC Telephone Numbers My Weather Data Folder Route Weather Data Regional Weather Data Local Weather Data To the Forecasts and Observations / NOTAM section
Request Generated 05/25/2017 at 01:08:50 UTC . Weather information available at that time is displayed.

METAR/TAF

SLAVE LAKE/AB    (show WxCam)

METAR CYZH 250100Z AUTO 35009G16KT 9SM SCT080 BKN100 16/05 A2956 RMK
SLP019 DENSITY ALT 2800FT=
METAR CYZH 250000Z AUTO 33009G23KT 9SM BKN075 OVC098 16/05 A2954 RMK
ICG MISG SLP013 DENSITY ALT 2800FT=
METAR CYZH 242300Z AUTO 33012G19KT 9SM SCT080 BKN098 BKN240 16/06
A2952 RMK SLP003 DENSITY ALT 2900FT=

TAF CYZH 250038Z 2501/2513 32015G25KT P6SM FEW050 SCT120
BECMG 2504/2506 32010G20KT
RMK FCST BASED ON AUTO OBS. NXT FCST BY 250700Z=
Your time UTC time
Weather data provided by Environment Canada and NAV CANADA